sensor_id;sensor_type;location;lat;lon;timestamp;P1;durP1;ratioP1;P2;durP2;ratioP2
37543;SDS011;23385;52.038;20.322;2022-09-03T00:00:14;7.33;;;3.60;;
37543;SDS011;23385;52.038;20.322;2022-09-03T00:02:42;6.17;;;3.20;;
37543;SDS011;23385;52.038;20.322;2022-09-03T00:11:18;4.17;;;3.17;;
37543;SDS011;23385;52.038;20.322;2022-09-03T00:16:33;10.47;;;4.27;;
37543;SDS011;23385;52.038;20.322;2022-09-03T00:19:10;4.57;;;2.97;;
37543;SDS011;23385;52.038;20.322;2022-09-03T00:21:46;4.93;;;3.50;;
37543;SDS011;23385;52.038;20.322;2022-09-03T00:24:18;5.73;;;3.37;;
37543;SDS011;23385;52.038;20.322;2022-09-03T00:26:49;6.60;;;3.50;;
37543;SDS011;23385;52.038;20.322;2022-09-03T00:29:32;3.83;;;3.00;;
37543;SDS011;23385;52.038;20.322;2022-09-03T00:32:04;5.70;;;3.30;;
37543;SDS011;23385;52.038;20.322;2022-09-03T00:34:38;9.70;;;3.83;;
37543;SDS011;23385;52.038;20.322;2022-09-03T00:37:08;4.70;;;3.07;;
37543;SDS011;23385;52.038;20.322;2022-09-03T00:39:35;5.50;;;3.20;;
37543;SDS011;23385;52.038;20.322;2022-09-03T00:42:24;5.13;;;3.33;;
37543;SDS011;23385;52.038;20.322;2022-09-03T00:45:30;5.20;;;3.30;;
37543;SDS011;23385;52.038;20.322;2022-09-03T00:48:13;7.37;;;3.50;;
37543;SDS011;23385;52.038;20.322;2022-09-03T00:50:46;6.97;;;3.70;;
37543;SDS011;23385;52.038;20.322;2022-09-03T00:53:19;5.17;;;3.20;;
37543;SDS011;23385;52.038;20.322;2022-09-03T00:59:00;7.43;;;3.63;;
37543;SDS011;23385;52.038;20.322;2022-09-03T01:01:39;4.70;;;3.07;;
37543;SDS011;23385;52.038;20.322;2022-09-03T01:04:27;9.80;;;3.60;;
37543;SDS011;23385;52.038;20.322;2022-09-03T01:13:11;7.03;;;3.47;;
37543;SDS011;23385;52.038;20.322;2022-09-03T01:15:27;5.53;;;3.30;;
37543;SDS011;23385;52.038;20.322;2022-09-03T01:18:15;7.60;;;3.63;;
37543;SDS011;23385;52.038;20.322;2022-09-03T01:23:24;6.00;;;3.53;;
37543;SDS011;23385;52.038;20.322;2022-09-03T01:29:04;5.80;;;3.60;;
37543;SDS011;23385;52.038;20.322;2022-09-03T01:35:07;6.20;;;3.43;;
37543;SDS011;23385;52.038;20.322;2022-09-03T01:45:58;7.67;;;3.37;;
37543;SDS011;23385;52.038;20.322;2022-09-03T01:48:39;4.60;;;3.37;;
37543;SDS011;23385;52.038;20.322;2022-09-03T01:59:28;5.43;;;3.00;;
37543;SDS011;23385;52.038;20.322;2022-09-03T02:02:04;6.37;;;3.50;;
37543;SDS011;23385;52.038;20.322;2022-09-03T02:04:36;4.40;;;3.53;;
37543;SDS011;23385;52.038;20.322;2022-09-03T02:07:03;10.37;;;4.17;;
37543;SDS011;23385;52.038;20.322;2022-09-03T02:09:30;7.17;;;3.53;;
37543;SDS011;23385;52.038;20.322;2022-09-03T02:12:15;6.87;;;3.90;;
37543;SDS011;23385;52.038;20.322;2022-09-03T02:19:53;5.20;;;4.00;;
37543;SDS011;23385;52.038;20.322;2022-09-03T02:22:19;8.10;;;3.97;;
37543;SDS011;23385;52.038;20.322;2022-09-03T02:24:45;5.80;;;3.93;;
37543;SDS011;23385;52.038;20.322;2022-09-03T02:27:11;5.10;;;3.50;;
37543;SDS011;23385;52.038;20.322;2022-09-03T02:29:37;6.03;;;3.83;;
37543;SDS011;23385;52.038;20.322;2022-09-03T02:32:03;7.63;;;4.00;;
37543;SDS011;23385;52.038;20.322;2022-09-03T02:34:29;6.83;;;3.90;;
37543;SDS011;23385;52.038;20.322;2022-09-03T02:36:55;5.67;;;3.90;;
37543;SDS011;23385;52.038;20.322;2022-09-03T02:39:20;7.27;;;3.80;;
37543;SDS011;23385;52.038;20.322;2022-09-03T02:41:49;11.00;;;4.73;;
37543;SDS011;23385;52.038;20.322;2022-09-03T02:44:20;5.90;;;4.07;;
37543;SDS011;23385;52.038;20.322;2022-09-03T02:46:59;7.93;;;4.33;;
37543;SDS011;23385;52.038;20.322;2022-09-03T02:49:30;9.63;;;4.43;;
37543;SDS011;23385;52.038;20.322;2022-09-03T02:52:00;5.60;;;3.83;;
37543;SDS011;23385;52.038;20.322;2022-09-03T02:54:30;9.37;;;3.93;;
37543;SDS011;23385;52.038;20.322;2022-09-03T02:57:00;7.50;;;3.77;;
37543;SDS011;23385;52.038;20.322;2022-09-03T02:59:26;8.17;;;4.30;;
37543;SDS011;23385;52.038;20.322;2022-09-03T03:01:52;7.90;;;4.07;;
37543;SDS011;23385;52.038;20.322;2022-09-03T03:04:19;5.40;;;4.10;;
37543;SDS011;23385;52.038;20.322;2022-09-03T03:06:45;11.57;;;4.13;;
37543;SDS011;23385;52.038;20.322;2022-09-03T03:09:11;7.77;;;4.13;;
37543;SDS011;23385;52.038;20.322;2022-09-03T03:11:37;6.40;;;3.93;;
37543;SDS011;23385;52.038;20.322;2022-09-03T03:14:04;8.67;;;4.10;;
37543;SDS011;23385;52.038;20.322;2022-09-03T03:16:30;6.20;;;4.00;;
37543;SDS011;23385;52.038;20.322;2022-09-03T03:18:56;8.20;;;3.73;;
37543;SDS011;23385;52.038;20.322;2022-09-03T03:21:22;7.67;;;4.03;;
37543;SDS011;23385;52.038;20.322;2022-09-03T03:23:48;10.20;;;4.13;;
37543;SDS011;23385;52.038;20.322;2022-09-03T03:26:15;6.03;;;4.10;;
37543;SDS011;23385;52.038;20.322;2022-09-03T03:28:43;6.87;;;3.60;;
37543;SDS011;23385;52.038;20.322;2022-09-03T03:43:07;10.20;;;4.67;;
37543;SDS011;23385;52.038;20.322;2022-09-03T03:45:34;8.43;;;4.90;;
37543;SDS011;23385;52.038;20.322;2022-09-03T03:48:00;10.83;;;4.33;;
37543;SDS011;23385;52.038;20.322;2022-09-03T03:50:26;9.60;;;4.50;;
37543;SDS011;23385;52.038;20.322;2022-09-03T03:52:52;11.40;;;4.93;;
37543;SDS011;23385;52.038;20.322;2022-09-03T03:55:18;6.90;;;4.40;;
37543;SDS011;23385;52.038;20.322;2022-09-03T03:57:43;9.43;;;5.27;;
37543;SDS011;23385;52.038;20.322;2022-09-03T04:00:10;7.23;;;4.60;;
37543;SDS011;23385;52.038;20.322;2022-09-03T04:02:36;6.97;;;3.93;;
37543;SDS011;23385;52.038;20.322;2022-09-03T04:05:02;6.40;;;4.17;;
37543;SDS011;23385;52.038;20.322;2022-09-03T04:07:28;7.77;;;4.23;;
37543;SDS011;23385;52.038;20.322;2022-09-03T04:09:54;8.13;;;4.43;;
37543;SDS011;23385;52.038;20.322;2022-09-03T04:12:19;10.30;;;4.73;;
37543;SDS011;23385;52.038;20.322;2022-09-03T04:14:45;8.60;;;5.07;;
37543;SDS011;23385;52.038;20.322;2022-09-03T04:17:11;10.33;;;5.00;;
37543;SDS011;23385;52.038;20.322;2022-09-03T04:19:39;15.10;;;4.60;;
37543;SDS011;23385;52.038;20.322;2022-09-03T04:22:05;10.60;;;5.50;;
37543;SDS011;23385;52.038;20.322;2022-09-03T04:24:30;7.10;;;4.60;;
37543;SDS011;23385;52.038;20.322;2022-09-03T04:26:56;10.93;;;4.90;;
37543;SDS011;23385;52.038;20.322;2022-09-03T04:29:22;10.93;;;5.40;;
37543;SDS011;23385;52.038;20.322;2022-09-03T04:31:49;7.83;;;5.23;;
37543;SDS011;23385;52.038;20.322;2022-09-03T04:34:33;7.63;;;5.23;;
37543;SDS011;23385;52.038;20.322;2022-09-03T04:36:59;10.87;;;5.70;;
37543;SDS011;23385;52.038;20.322;2022-09-03T04:39:24;9.43;;;5.53;;
37543;SDS011;23385;52.038;20.322;2022-09-03T04:41:50;7.37;;;4.83;;
37543;SDS011;23385;52.038;20.322;2022-09-03T04:44:16;8.43;;;4.67;;
37543;SDS011;23385;52.038;20.322;2022-09-03T04:46:42;10.90;;;4.77;;
37543;SDS011;23385;52.038;20.322;2022-09-03T04:49:08;9.10;;;5.23;;
37543;SDS011;23385;52.038;20.322;2022-09-03T04:51:34;12.30;;;6.17;;
37543;SDS011;23385;52.038;20.322;2022-09-03T04:54:02;9.50;;;5.30;;
37543;SDS011;23385;52.038;20.322;2022-09-03T04:56:29;8.13;;;5.93;;
37543;SDS011;23385;52.038;20.322;2022-09-03T04:58:57;13.60;;;5.77;;
37543;SDS011;23385;52.038;20.322;2022-09-03T05:01:25;8.07;;;5.33;;
37543;SDS011;23385;52.038;20.322;2022-09-03T05:03:52;14.20;;;5.83;;
37543;SDS011;23385;52.038;20.322;2022-09-03T05:06:19;10.07;;;6.10;;
37543;SDS011;23385;52.038;20.322;2022-09-03T05:08:48;13.63;;;5.63;;
37543;SDS011;23385;52.038;20.322;2022-09-03T05:11:15;8.10;;;5.30;;
37543;SDS011;23385;52.038;20.322;2022-09-03T05:13:42;9.47;;;5.80;;
37543;SDS011;23385;52.038;20.322;2022-09-03T05:16:08;13.97;;;6.10;;
37543;SDS011;23385;52.038;20.322;2022-09-03T05:18:37;9.57;;;5.73;;
37543;SDS011;23385;52.038;20.322;2022-09-03T05:21:05;11.00;;;6.03;;
37543;SDS011;23385;52.038;20.322;2022-09-03T05:23:34;11.60;;;6.07;;
37543;SDS011;23385;52.038;20.322;2022-09-03T05:26:03;10.57;;;6.00;;
37543;SDS011;23385;52.038;20.322;2022-09-03T05:28:33;10.50;;;6.73;;
37543;SDS011;23385;52.038;20.322;2022-09-03T05:31:01;10.63;;;7.00;;
37543;SDS011;23385;52.038;20.322;2022-09-03T05:33:29;11.43;;;7.43;;
37543;SDS011;23385;52.038;20.322;2022-09-03T05:36:06;11.40;;;6.97;;
37543;SDS011;23385;52.038;20.322;2022-09-03T05:38:34;15.40;;;6.93;;
37543;SDS011;23385;52.038;20.322;2022-09-03T05:41:00;15.33;;;6.40;;
37543;SDS011;23385;52.038;20.322;2022-09-03T05:43:28;10.60;;;5.57;;
37543;SDS011;23385;52.038;20.322;2022-09-03T05:45:58;11.20;;;6.20;;
37543;SDS011;23385;52.038;20.322;2022-09-03T05:48:25;10.17;;;6.33;;
37543;SDS011;23385;52.038;20.322;2022-09-03T05:51:02;10.13;;;5.80;;
37543;SDS011;23385;52.038;20.322;2022-09-03T05:53:31;10.77;;;6.40;;
37543;SDS011;23385;52.038;20.322;2022-09-03T05:56:00;8.93;;;5.93;;
37543;SDS011;23385;52.038;20.322;2022-09-03T05:58:34;11.67;;;6.20;;
37543;SDS011;23385;52.038;20.322;2022-09-03T06:01:11;12.83;;;6.53;;
37543;SDS011;23385;52.038;20.322;2022-09-03T06:03:38;10.80;;;6.33;;
37543;SDS011;23385;52.038;20.322;2022-09-03T06:06:06;10.77;;;7.03;;
37543;SDS011;23385;52.038;20.322;2022-09-03T06:08:33;11.87;;;5.97;;
37543;SDS011;23385;52.038;20.322;2022-09-03T06:11:00;10.73;;;5.47;;
37543;SDS011;23385;52.038;20.322;2022-09-03T06:13:28;11.37;;;5.80;;
37543;SDS011;23385;52.038;20.322;2022-09-03T06:15:57;15.33;;;5.37;;
37543;SDS011;23385;52.038;20.322;2022-09-03T06:18:27;10.33;;;5.73;;
37543;SDS011;23385;52.038;20.322;2022-09-03T06:20:54;10.57;;;5.67;;
37543;SDS011;23385;52.038;20.322;2022-09-03T06:23:20;14.60;;;5.93;;
37543;SDS011;23385;52.038;20.322;2022-09-03T06:25:46;10.80;;;5.83;;
37543;SDS011;23385;52.038;20.322;2022-09-03T06:28:12;11.93;;;5.70;;
37543;SDS011;23385;52.038;20.322;2022-09-03T06:30:38;11.17;;;6.00;;
37543;SDS011;23385;52.038;20.322;2022-09-03T06:33:05;14.53;;;5.67;;
37543;SDS011;23385;52.038;20.322;2022-09-03T06:35:33;9.83;;;5.43;;
37543;SDS011;23385;52.038;20.322;2022-09-03T06:37:59;10.77;;;5.10;;
37543;SDS011;23385;52.038;20.322;2022-09-03T06:40:25;11.30;;;5.50;;
37543;SDS011;23385;52.038;20.322;2022-09-03T06:42:55;10.10;;;4.60;;
37543;SDS011;23385;52.038;20.322;2022-09-03T06:45:26;8.97;;;4.77;;
37543;SDS011;23385;52.038;20.322;2022-09-03T06:47:53;8.50;;;5.27;;
37543;SDS011;23385;52.038;20.322;2022-09-03T06:50:19;6.57;;;4.30;;
37543;SDS011;23385;52.038;20.322;2022-09-03T06:52:52;13.10;;;4.87;;
37543;SDS011;23385;52.038;20.322;2022-09-03T06:55:19;8.80;;;4.47;;
37543;SDS011;23385;52.038;20.322;2022-09-03T06:57:46;7.77;;;4.60;;
37543;SDS011;23385;52.038;20.322;2022-09-03T07:00:12;10.13;;;4.37;;
37543;SDS011;23385;52.038;20.322;2022-09-03T07:02:39;10.47;;;4.77;;
37543;SDS011;23385;52.038;20.322;2022-09-03T07:05:06;10.40;;;3.90;;
37543;SDS011;23385;52.038;20.322;2022-09-03T07:07:33;8.70;;;4.47;;
37543;SDS011;23385;52.038;20.322;2022-09-03T07:09:58;12.70;;;4.57;;
37543;SDS011;23385;52.038;20.322;2022-09-03T07:12:25;8.27;;;4.47;;
37543;SDS011;23385;52.038;20.322;2022-09-03T07:14:51;7.43;;;3.60;;
37543;SDS011;23385;52.038;20.322;2022-09-03T07:17:17;7.53;;;4.47;;
37543;SDS011;23385;52.038;20.322;2022-09-03T07:19:43;7.53;;;3.87;;
37543;SDS011;23385;52.038;20.322;2022-09-03T07:22:09;7.90;;;4.50;;
37543;SDS011;23385;52.038;20.322;2022-09-03T07:24:35;9.35;;;4.18;;
37543;SDS011;23385;52.038;20.322;2022-09-03T07:27:01;18.13;;;4.43;;
37543;SDS011;23385;52.038;20.322;2022-09-03T07:29:29;6.57;;;3.70;;
37543;SDS011;23385;52.038;20.322;2022-09-03T07:31:55;8.85;;;3.83;;
37543;SDS011;23385;52.038;20.322;2022-09-03T07:34:21;7.63;;;3.70;;
37543;SDS011;23385;52.038;20.322;2022-09-03T07:36:49;8.93;;;3.17;;
37543;SDS011;23385;52.038;20.322;2022-09-03T07:39:15;9.77;;;3.58;;
37543;SDS011;23385;52.038;20.322;2022-09-03T07:41:43;30.98;;;5.95;;
37543;SDS011;23385;52.038;20.322;2022-09-03T07:44:10;10.02;;;3.63;;
37543;SDS011;23385;52.038;20.322;2022-09-03T07:46:43;9.27;;;3.67;;
37543;SDS011;23385;52.038;20.322;2022-09-03T07:49:10;7.57;;;3.42;;
37543;SDS011;23385;52.038;20.322;2022-09-03T07:51:36;10.13;;;3.22;;
37543;SDS011;23385;52.038;20.322;2022-09-03T07:54:04;11.20;;;3.50;;
37543;SDS011;23385;52.038;20.322;2022-09-03T07:56:31;6.45;;;3.22;;
37543;SDS011;23385;52.038;20.322;2022-09-03T07:59:00;7.80;;;3.35;;
37543;SDS011;23385;52.038;20.322;2022-09-03T08:01:27;11.73;;;2.85;;
37543;SDS011;23385;52.038;20.322;2022-09-03T08:03:55;6.07;;;2.67;;
37543;SDS011;23385;52.038;20.322;2022-09-03T08:06:22;10.15;;;3.30;;
37543;SDS011;23385;52.038;20.322;2022-09-03T08:08:53;10.20;;;2.83;;
37543;SDS011;23385;52.038;20.322;2022-09-03T08:11:22;8.70;;;2.95;;
37543;SDS011;23385;52.038;20.322;2022-09-03T08:13:59;8.20;;;2.20;;
37543;SDS011;23385;52.038;20.322;2022-09-03T08:16:31;9.00;;;2.65;;
37543;SDS011;23385;52.038;20.322;2022-09-03T08:18:58;4.65;;;2.30;;
37543;SDS011;23385;52.038;20.322;2022-09-03T08:21:25;4.95;;;2.30;;
37543;SDS011;23385;52.038;20.322;2022-09-03T08:23:52;7.53;;;2.63;;
37543;SDS011;23385;52.038;20.322;2022-09-03T08:26:20;6.10;;;2.40;;
37543;SDS011;23385;52.038;20.322;2022-09-03T08:28:47;5.25;;;2.85;;
37543;SDS011;23385;52.038;20.322;2022-09-03T08:31:17;8.48;;;3.13;;
37543;SDS011;23385;52.038;20.322;2022-09-03T08:33:45;6.78;;;2.33;;
37543;SDS011;23385;52.038;20.322;2022-09-03T08:36:13;5.45;;;2.58;;
37543;SDS011;23385;52.038;20.322;2022-09-03T08:38:41;7.38;;;2.92;;
37543;SDS011;23385;52.038;20.322;2022-09-03T08:41:16;4.43;;;2.28;;
37543;SDS011;23385;52.038;20.322;2022-09-03T08:46:47;6.38;;;2.40;;
37543;SDS011;23385;52.038;20.322;2022-09-03T08:52:22;7.97;;;2.15;;
37543;SDS011;23385;52.038;20.322;2022-09-03T08:54:50;6.07;;;2.28;;
37543;SDS011;23385;52.038;20.322;2022-09-03T08:57:22;11.13;;;2.38;;
37543;SDS011;23385;52.038;20.322;2022-09-03T08:59:50;4.63;;;1.83;;
37543;SDS011;23385;52.038;20.322;2022-09-03T09:02:25;10.55;;;2.53;;
37543;SDS011;23385;52.038;20.322;2022-09-03T09:05:21;7.70;;;2.15;;
37543;SDS011;23385;52.038;20.322;2022-09-03T09:08:29;4.63;;;2.28;;
37543;SDS011;23385;52.038;20.322;2022-09-03T09:11:06;7.32;;;2.58;;
37543;SDS011;23385;52.038;20.322;2022-09-03T09:16:34;4.32;;;1.95;;
37543;SDS011;23385;52.038;20.322;2022-09-03T09:22:10;11.00;;;2.00;;
37543;SDS011;23385;52.038;20.322;2022-09-03T09:24:49;10.05;;;2.00;;
37543;SDS011;23385;52.038;20.322;2022-09-03T09:27:19;7.72;;;2.30;;
37543;SDS011;23385;52.038;20.322;2022-09-03T09:29:47;2.83;;;1.73;;
37543;SDS011;23385;52.038;20.322;2022-09-03T09:32:15;5.70;;;2.70;;
37543;SDS011;23385;52.038;20.322;2022-09-03T09:34:43;3.85;;;1.83;;
37543;SDS011;23385;52.038;20.322;2022-09-03T09:37:13;4.88;;;1.92;;
37543;SDS011;23385;52.038;20.322;2022-09-03T09:39:52;5.18;;;1.85;;
37543;SDS011;23385;52.038;20.322;2022-09-03T09:42:20;3.78;;;1.75;;
37543;SDS011;23385;52.038;20.322;2022-09-03T09:44:47;6.65;;;1.83;;
37543;SDS011;23385;52.038;20.322;2022-09-03T09:47:15;5.38;;;2.03;;
37543;SDS011;23385;52.038;20.322;2022-09-03T09:52:23;3.95;;;1.73;;
37543;SDS011;23385;52.038;20.322;2022-09-03T09:54:52;6.35;;;1.50;;
37543;SDS011;23385;52.038;20.322;2022-09-03T09:57:37;8.35;;;1.90;;
37543;SDS011;23385;52.038;20.322;2022-09-03T10:00:13;2.88;;;1.63;;
37543;SDS011;23385;52.038;20.322;2022-09-03T10:02:48;4.13;;;1.55;;
37543;SDS011;23385;52.038;20.322;2022-09-03T10:05:25;5.10;;;1.65;;
37543;SDS011;23385;52.038;20.322;2022-09-03T10:10:22;1.85;;;1.30;;
37543;SDS011;23385;52.038;20.322;2022-09-03T10:12:55;3.67;;;1.50;;
37543;SDS011;23385;52.038;20.322;2022-09-03T10:15:34;5.20;;;1.60;;
37543;SDS011;23385;52.038;20.322;2022-09-03T10:18:43;2.63;;;1.55;;
37543;SDS011;23385;52.038;20.322;2022-09-03T10:21:19;6.57;;;1.50;;
37543;SDS011;23385;52.038;20.322;2022-09-03T10:26:39;2.95;;;1.23;;
37543;SDS011;23385;52.038;20.322;2022-09-03T10:29:08;8.75;;;1.65;;
37543;SDS011;23385;52.038;20.322;2022-09-03T10:34:21;4.53;;;1.30;;
37543;SDS011;23385;52.038;20.322;2022-09-03T10:51:34;2.70;;;1.40;;
37543;SDS011;23385;52.038;20.322;2022-09-03T10:54:35;2.35;;;1.33;;
37543;SDS011;23385;52.038;20.322;2022-09-03T11:00:23;4.40;;;1.30;;
37543;SDS011;23385;52.038;20.322;2022-09-03T11:03:16;4.05;;;1.35;;
37543;SDS011;23385;52.038;20.322;2022-09-03T11:08:27;1.42;;;1.00;;
37543;SDS011;23385;52.038;20.322;2022-09-03T11:10:56;2.67;;;1.30;;
37543;SDS011;23385;52.038;20.322;2022-09-03T11:13:35;3.47;;;1.38;;
37543;SDS011;23385;52.038;20.322;2022-09-03T11:16:29;2.20;;;1.33;;
37543;SDS011;23385;52.038;20.322;2022-09-03T11:19:12;3.28;;;1.40;;
37543;SDS011;23385;52.038;20.322;2022-09-03T11:21:42;4.10;;;1.30;;
37543;SDS011;23385;52.038;20.322;2022-09-03T11:26:38;11.23;;;1.73;;
37543;SDS011;23385;52.038;20.322;2022-09-03T11:29:52;3.00;;;1.42;;
37543;SDS011;23385;52.038;20.322;2022-09-03T11:32:23;2.55;;;1.23;;
37543;SDS011;23385;52.038;20.322;2022-09-03T11:41:14;3.70;;;1.38;;
37543;SDS011;23385;52.038;20.322;2022-09-03T11:43:54;1.90;;;1.33;;
37543;SDS011;23385;52.038;20.322;2022-09-03T11:48:51;3.88;;;1.30;;
37543;SDS011;23385;52.038;20.322;2022-09-03T11:51:32;1.60;;;1.20;;
37543;SDS011;23385;52.038;20.322;2022-09-03T11:54:05;2.83;;;1.30;;
37543;SDS011;23385;52.038;20.322;2022-09-03T11:57:05;1.98;;;1.27;;
37543;SDS011;23385;52.038;20.322;2022-09-03T12:00:11;2.13;;;1.35;;
37543;SDS011;23385;52.038;20.322;2022-09-03T12:02:43;1.70;;;1.38;;
37543;SDS011;23385;52.038;20.322;2022-09-03T12:19:20;3.35;;;1.50;;
37543;SDS011;23385;52.038;20.322;2022-09-03T12:21:53;2.65;;;1.48;;
37543;SDS011;23385;52.038;20.322;2022-09-03T12:24:20;7.97;;;2.28;;
37543;SDS011;23385;52.038;20.322;2022-09-03T12:26:47;4.45;;;1.60;;
37543;SDS011;23385;52.038;20.322;2022-09-03T12:29:23;3.50;;;1.52;;
37543;SDS011;23385;52.038;20.322;2022-09-03T12:31:53;3.67;;;1.20;;
37543;SDS011;23385;52.038;20.322;2022-09-03T12:34:35;5.03;;;1.23;;
37543;SDS011;23385;52.038;20.322;2022-09-03T12:37:15;1.83;;;0.95;;
37543;SDS011;23385;52.038;20.322;2022-09-03T12:39:49;3.20;;;1.40;;
37543;SDS011;23385;52.038;20.322;2022-09-03T12:42:22;3.65;;;1.38;;
37543;SDS011;23385;52.038;20.322;2022-09-03T12:44:53;2.58;;;1.50;;
37543;SDS011;23385;52.038;20.322;2022-09-03T12:47:20;3.85;;;1.20;;
37543;SDS011;23385;52.038;20.322;2022-09-03T12:49:48;2.92;;;1.23;;
37543;SDS011;23385;52.038;20.322;2022-09-03T12:55:14;2.08;;;1.10;;
37543;SDS011;23385;52.038;20.322;2022-09-03T12:58:06;4.18;;;1.10;;
37543;SDS011;23385;52.038;20.322;2022-09-03T13:01:11;3.30;;;1.10;;
37543;SDS011;23385;52.038;20.322;2022-09-03T13:04:00;2.72;;;0.90;;
37543;SDS011;23385;52.038;20.322;2022-09-03T13:09:21;2.75;;;1.20;;
37543;SDS011;23385;52.038;20.322;2022-09-03T13:11:50;2.92;;;1.23;;
37543;SDS011;23385;52.038;20.322;2022-09-03T13:14:19;1.75;;;1.20;;
37543;SDS011;23385;52.038;20.322;2022-09-03T13:22:33;1.88;;;1.10;;
37543;SDS011;23385;52.038;20.322;2022-09-03T13:25:32;2.05;;;1.10;;
37543;SDS011;23385;52.038;20.322;2022-09-03T13:28:30;2.67;;;1.02;;
37543;SDS011;23385;52.038;20.322;2022-09-03T13:31:04;11.38;;;1.08;;
37543;SDS011;23385;52.038;20.322;2022-09-03T13:33:52;5.22;;;1.00;;
37543;SDS011;23385;52.038;20.322;2022-09-03T13:39:20;3.10;;;1.00;;
37543;SDS011;23385;52.038;20.322;2022-09-03T13:41:49;2.28;;;1.00;;
37543;SDS011;23385;52.038;20.322;2022-09-03T13:47:28;1.10;;;0.80;;
37543;SDS011;23385;52.038;20.322;2022-09-03T13:50:39;3.17;;;1.10;;
37543;SDS011;23385;52.038;20.322;2022-09-03T13:56:21;4.15;;;0.85;;
37543;SDS011;23385;52.038;20.322;2022-09-03T14:07:33;3.55;;;1.17;;
37543;SDS011;23385;52.038;20.322;2022-09-03T14:10:05;1.10;;;0.95;;
37543;SDS011;23385;52.038;20.322;2022-09-03T14:12:41;26.90;;;2.80;;
37543;SDS011;23385;52.038;20.322;2022-09-03T14:15:25;3.42;;;0.93;;
37543;SDS011;23385;52.038;20.322;2022-09-03T14:18:26;5.82;;;1.20;;
37543;SDS011;23385;52.038;20.322;2022-09-03T14:21:19;5.65;;;1.60;;
37543;SDS011;23385;52.038;20.322;2022-09-03T14:24:06;1.75;;;0.90;;
37543;SDS011;23385;52.038;20.322;2022-09-03T14:27:04;3.78;;;1.10;;
37543;SDS011;23385;52.038;20.322;2022-09-03T14:29:38;1.73;;;0.90;;
37543;SDS011;23385;52.038;20.322;2022-09-03T14:37:56;2.08;;;1.00;;
37543;SDS011;23385;52.038;20.322;2022-09-03T14:43:05;4.43;;;1.00;;
37543;SDS011;23385;52.038;20.322;2022-09-03T15:00:13;2.80;;;1.02;;
37543;SDS011;23385;52.038;20.322;2022-09-03T15:11:25;5.47;;;1.27;;
37543;SDS011;23385;52.038;20.322;2022-09-03T15:14:02;3.35;;;1.77;;
37543;SDS011;23385;52.038;20.322;2022-09-03T15:19:56;3.05;;;1.20;;
37543;SDS011;23385;52.038;20.322;2022-09-03T15:26:20;3.97;;;1.45;;
37543;SDS011;23385;52.038;20.322;2022-09-03T15:32:09;6.22;;;2.88;;
37543;SDS011;23385;52.038;20.322;2022-09-03T15:37:31;3.75;;;1.40;;
37543;SDS011;23385;52.038;20.322;2022-09-03T15:40:00;5.85;;;1.45;;
37543;SDS011;23385;52.038;20.322;2022-09-03T15:42:34;5.55;;;1.75;;
37543;SDS011;23385;52.038;20.322;2022-09-03T15:45:19;2.25;;;1.38;;
37543;SDS011;23385;52.038;20.322;2022-09-03T15:47:55;5.07;;;3.17;;
37543;SDS011;23385;52.038;20.322;2022-09-03T15:50:33;9.57;;;3.05;;
37543;SDS011;23385;52.038;20.322;2022-09-03T15:53:11;7.72;;;2.83;;
37543;SDS011;23385;52.038;20.322;2022-09-03T15:55:49;2.80;;;1.98;;
37543;SDS011;23385;52.038;20.322;2022-09-03T15:58:35;6.97;;;2.25;;
37543;SDS011;23385;52.038;20.322;2022-09-03T16:01:13;3.72;;;1.50;;
37543;SDS011;23385;52.038;20.322;2022-09-03T16:04:09;1.80;;;1.30;;
37543;SDS011;23385;52.038;20.322;2022-09-03T16:07:08;2.15;;;1.38;;
37543;SDS011;23385;52.038;20.322;2022-09-03T16:12:59;6.93;;;2.88;;
37543;SDS011;23385;52.038;20.322;2022-09-03T16:15:38;1.98;;;1.33;;
37543;SDS011;23385;52.038;20.322;2022-09-03T16:18:21;7.00;;;1.88;;
37543;SDS011;23385;52.038;20.322;2022-09-03T16:21:20;19.23;;;9.00;;
37543;SDS011;23385;52.038;20.322;2022-09-03T16:24:02;7.93;;;4.65;;
37543;SDS011;23385;52.038;20.322;2022-09-03T16:26:39;16.98;;;7.15;;
37543;SDS011;23385;52.038;20.322;2022-09-03T16:29:10;10.52;;;5.70;;
37543;SDS011;23385;52.038;20.322;2022-09-03T16:31:42;17.88;;;9.93;;
37543;SDS011;23385;52.038;20.322;2022-09-03T16:34:31;9.88;;;3.33;;
37543;SDS011;23385;52.038;20.322;2022-09-03T16:48:43;3.80;;;1.42;;
37543;SDS011;23385;52.038;20.322;2022-09-03T17:09:02;9.02;;;6.28;;
37543;SDS011;23385;52.038;20.322;2022-09-03T17:26:27;15.18;;;7.72;;
37543;SDS011;23385;52.038;20.322;2022-09-03T17:29:32;14.10;;;8.55;;
37543;SDS011;23385;52.038;20.322;2022-09-03T17:43:43;13.18;;;6.80;;
37543;SDS011;23385;52.038;20.322;2022-09-03T17:49:25;26.70;;;9.70;;
37543;SDS011;23385;52.038;20.322;2022-09-03T17:52:27;25.42;;;10.20;;
37543;SDS011;23385;52.038;20.322;2022-09-03T17:58:39;21.77;;;9.97;;
37543;SDS011;23385;52.038;20.322;2022-09-03T18:01:31;13.23;;;7.37;;
37543;SDS011;23385;52.038;20.322;2022-09-03T18:12:43;14.53;;;8.80;;
37543;SDS011;23385;52.038;20.322;2022-09-03T18:15:24;37.83;;;16.07;;
37543;SDS011;23385;52.038;20.322;2022-09-03T18:18:11;27.53;;;14.03;;
37543;SDS011;23385;52.038;20.322;2022-09-03T18:20:55;34.70;;;17.30;;
37543;SDS011;23385;52.038;20.322;2022-09-03T18:24:18;41.00;;;21.67;;
37543;SDS011;23385;52.038;20.322;2022-09-03T18:27:17;40.60;;;22.47;;
37543;SDS011;23385;52.038;20.322;2022-09-03T18:30:24;36.57;;;23.97;;
37543;SDS011;23385;52.038;20.322;2022-09-03T18:33:08;42.30;;;25.00;;
37543;SDS011;23385;52.038;20.322;2022-09-03T18:35:53;38.90;;;24.33;;
37543;SDS011;23385;52.038;20.322;2022-09-03T18:38:37;42.30;;;23.37;;
37543;SDS011;23385;52.038;20.322;2022-09-03T18:54:09;22.30;;;13.80;;
37543;SDS011;23385;52.038;20.322;2022-09-03T18:57:19;17.93;;;12.37;;
37543;SDS011;23385;52.038;20.322;2022-09-03T19:00:08;21.67;;;11.73;;
37543;SDS011;23385;52.038;20.322;2022-09-03T19:06:02;18.53;;;10.87;;
37543;SDS011;23385;52.038;20.322;2022-09-03T19:09:04;16.67;;;10.20;;
37543;SDS011;23385;52.038;20.322;2022-09-03T19:12:11;18.87;;;10.87;;
37543;SDS011;23385;52.038;20.322;2022-09-03T19:15:08;16.87;;;10.70;;
37543;SDS011;23385;52.038;20.322;2022-09-03T19:20:50;16.03;;;11.53;;
37543;SDS011;23385;52.038;20.322;2022-09-03T19:23:59;20.23;;;12.13;;
37543;SDS011;23385;52.038;20.322;2022-09-03T19:26:47;24.17;;;13.37;;
37543;SDS011;23385;52.038;20.322;2022-09-03T19:29:51;20.80;;;12.43;;
37543;SDS011;23385;52.038;20.322;2022-09-03T19:39:00;18.50;;;12.63;;
37543;SDS011;23385;52.038;20.322;2022-09-03T19:42:02;20.23;;;12.97;;
37543;SDS011;23385;52.038;20.322;2022-09-03T19:45:11;25.90;;;13.93;;
37543;SDS011;23385;52.038;20.322;2022-09-03T19:51:31;24.03;;;13.27;;
37543;SDS011;23385;52.038;20.322;2022-09-03T19:54:21;19.07;;;12.10;;
37543;SDS011;23385;52.038;20.322;2022-09-03T19:57:07;18.43;;;12.97;;
37543;SDS011;23385;52.038;20.322;2022-09-03T19:59:54;36.33;;;13.90;;
37543;SDS011;23385;52.038;20.322;2022-09-03T20:02:40;30.33;;;14.30;;
37543;SDS011;23385;52.038;20.322;2022-09-03T20:05:28;26.90;;;14.53;;
37543;SDS011;23385;52.038;20.322;2022-09-03T20:08:15;27.13;;;15.03;;
37543;SDS011;23385;52.038;20.322;2022-09-03T20:11:00;27.23;;;15.07;;
37543;SDS011;23385;52.038;20.322;2022-09-03T20:13:29;29.27;;;14.93;;
37543;SDS011;23385;52.038;20.322;2022-09-03T20:16:35;27.40;;;15.63;;
37543;SDS011;23385;52.038;20.322;2022-09-03T20:22:07;29.03;;;16.63;;